SWA3505 KMSY-KMCO
Flight info
| Callsign | SWA3505 |
|---|---|
| Flight time | N/A |
| Altitude | 37000 |
| Route | REDFN Y280 CHRGE PRICY5 |
| Aircraft | B737/M-SDE2E3FGHIRWXY/LB1 |
Departure
| Time | N/A |
|---|---|
| Airport | Louis Armstrong New Orleans International Airport (KMSY) |
Arrival
| Time | 2026-04-24 19:03 |
|---|---|
| Airport | Orlando International Airport (KMCO) |
| Time | Latitude | Longitude | Altitude | Speed | Heading |
|---|---|---|---|---|---|
| 2026-04-24 17:08 | 29.99395 | -90.25624 | 5 ft | 0 kts | 272° |
| 2026-04-24 18:54 | 28.37576 | -81.42342 | 7972 ft | 270 kts | 359° |
| 2026-04-24 18:55 | 28.41268 | -81.42393 | 7454 ft | 261 kts | 359° |
| 2026-04-24 18:55 | 28.43069 | -81.42404 | 7212 ft | 256 kts | 360° |
| 2026-04-24 18:55 | 28.44836 | -81.42411 | 6977 ft | 252 kts | 360° |
| 2026-04-24 18:56 | 28.46578 | -81.42414 | 6731 ft | 249 kts | 360° |
| 2026-04-24 18:56 | 28.48304 | -81.42415 | 6492 ft | 247 kts | 0° |
| 2026-04-24 18:56 | 28.50013 | -81.42415 | 6257 ft | 244 kts | 0° |
| 2026-04-24 18:56 | 28.51679 | -81.42415 | 6065 ft | 239 kts | 0° |
| 2026-04-24 18:57 | 28.53336 | -81.42430 | 5994 ft | 231 kts | 359° |
| 2026-04-24 18:57 | 28.54953 | -81.42454 | 5414 ft | 244 kts | 359° |
| 2026-04-24 18:57 | 28.56663 | -81.42476 | 5019 ft | 248 kts | 360° |
| 2026-04-24 18:57 | 28.58349 | -81.42238 | 4760 ft | 243 kts | 26° |
| 2026-04-24 18:58 | 28.59560 | -81.40987 | 4521 ft | 236 kts | 62° |
| 2026-04-24 18:58 | 28.60014 | -81.39225 | 4248 ft | 232 kts | 86° |
| 2026-04-24 18:58 | 28.59836 | -81.37419 | 3961 ft | 230 kts | 107° |
| 2026-04-24 18:58 | 28.59293 | -81.35718 | 3699 ft | 228 kts | 111° |
| 2026-04-24 18:59 | 28.58708 | -81.34040 | 3399 ft | 228 kts | 112° |
| 2026-04-24 18:59 | 28.58129 | -81.32368 | 3104 ft | 226 kts | 111° |
| 2026-04-24 18:59 | 28.57565 | -81.30724 | 2816 ft | 220 kts | 111° |
| 2026-04-24 18:59 | 28.56875 | -81.29211 | 2525 ft | 213 kts | 136° |
| 2026-04-24 19:00 | 28.55587 | -81.28575 | 2500 ft | 204 kts | 177° |
| 2026-04-24 19:00 | 28.54218 | -81.28493 | 2357 ft | 195 kts | 169° |
| 2026-04-24 19:00 | 28.52851 | -81.28302 | 1844 ft | 199 kts | 179° |
| 2026-04-24 19:00 | 28.51489 | -81.28321 | 1504 ft | 190 kts | 180° |
| 2026-04-24 19:01 | 28.50220 | -81.28319 | 1264 ft | 175 kts | 179° |
| 2026-04-24 19:01 | 28.49048 | -81.28306 | 1041 ft | 161 kts | 179° |
| 2026-04-24 19:01 | 28.47973 | -81.28295 | 836 ft | 148 kts | 179° |
| 2026-04-24 19:01 | 28.46984 | -81.28285 | 655 ft | 139 kts | 178° |
| 2026-04-24 19:02 | 28.46350 | -81.28279 | 514 ft | 135 kts | 178° |
| 2026-04-24 19:02 | 28.45069 | -81.28266 | 288 ft | 140 kts | 179° |
| 2026-04-24 19:02 | 28.44087 | -81.28259 | 118 ft | 141 kts | 179° |
| 2026-04-24 19:02 | 28.43196 | -81.28247 | 95 ft | 112 kts | 179° |
| 2026-04-24 19:03 | 28.42577 | -81.28240 | 97 ft | 60 kts | 179° |
| 2026-04-24 19:03 | 28.42360 | -81.28257 | 100 ft | 14 kts | 198° |
| 2026-04-24 19:03 | 28.42289 | -81.28324 | 96 ft | 13 kts | 259° |
| 2026-04-24 19:03 | 28.42358 | -81.28361 | 95 ft | 12 kts | 359° |
| 2026-04-24 19:04 | 28.42443 | -81.28362 | 95 ft | 12 kts | 360° |
| 2026-04-24 19:04 | 28.42503 | -81.28409 | 94 ft | 12 kts | 272° |
| 2026-04-24 19:04 | 28.42476 | -81.28505 | 96 ft | 13 kts | 250° |
| 2026-04-24 19:04 | 28.42445 | -81.28604 | 97 ft | 13 kts | 250° |
| 2026-04-24 19:05 | 28.42411 | -81.28713 | 98 ft | 16 kts | 250° |
| 2026-04-24 19:05 | 28.42373 | -81.28834 | 103 ft | 17 kts | 250° |
| 2026-04-24 19:05 | 28.42332 | -81.28967 | 102 ft | 18 kts | 251° |
| 2026-04-24 19:05 | 28.42292 | -81.29116 | 93 ft | 14 kts | 259° |
| 2026-04-24 19:06 | 28.42285 | -81.29220 | 93 ft | 13 kts | 269° |
| 2026-04-24 19:06 | 28.42284 | -81.29324 | 93 ft | 13 kts | 269° |
| 2026-04-24 19:06 | 28.42283 | -81.29423 | 94 ft | 12 kts | 269° |
| 2026-04-24 19:06 | 28.42283 | -81.29500 | 93 ft | 10 kts | 269° |
| 2026-04-24 19:07 | 28.42282 | -81.29582 | 93 ft | 11 kts | 269° |
| 2026-04-24 19:07 | 28.42282 | -81.29683 | 93 ft | 14 kts | 269° |
| 2026-04-24 19:07 | 28.42285 | -81.29761 | 93 ft | 16 kts | 288° |
| 2026-04-24 19:07 | 28.42430 | -81.29795 | 93 ft | 19 kts | 359° |
| 2026-04-24 19:08 | 28.42565 | -81.29796 | 94 ft | 20 kts | 359° |
| 2026-04-24 19:08 | 28.42714 | -81.29797 | 95 ft | 22 kts | 359° |
| 2026-04-24 19:08 | 28.42871 | -81.29799 | 94 ft | 23 kts | 359° |
| 2026-04-24 19:08 | 28.43026 | -81.29801 | 94 ft | 22 kts | 359° |
| 2026-04-24 19:09 | 28.43177 | -81.29802 | 94 ft | 21 kts | 359° |
| 2026-04-24 19:09 | 28.43298 | -81.29803 | 94 ft | 14 kts | 359° |
| 2026-04-24 19:09 | 28.43342 | -81.29881 | 94 ft | 10 kts | 280° |
| 2026-04-24 19:09 | 28.43360 | -81.29941 | 94 ft | 8 kts | 306° |
| 2026-04-24 19:10 | 28.43384 | -81.29978 | 93 ft | 4 kts | 307° |
| 2026-04-24 19:10 | 28.43390 | -81.29986 | 94 ft | 0 kts | 307° |